Terminal Aerodrome Forecast
Issued by NWS Grand Forks, ND

Home | Current Version | Previous Version | Graphics & Text | Print | Product List | Glossary On
Versions: 1 2 3 4 5 6 7 8 9 10 11 12 13 14 15 16 17
000
FTUS43 KFGF 302300
TAFFAR
TAF
KFAR 302322Z 3100/3124 18008KT P6SM SKC
     FM310100 32008KT P6SM SKC
     FM310400 34014KT P6SM OVC015
     FM311500 01016G22KT P6SM BKN050=

USA.gov is the U.S. government's official web portal to all federal, state and local government web resources and services.